createdAt,value
2023-01-02T00:02:11.063Z,11.40
2023-01-02T00:04:38.793Z,11.40
2023-01-02T00:07:06.603Z,11.40
2023-01-02T00:09:34.365Z,11.40
2023-01-02T00:12:02.082Z,11.40
2023-01-02T00:14:29.856Z,11.40
2023-01-02T00:16:57.576Z,11.40
2023-01-02T00:19:26.661Z,11.50
2023-01-02T00:21:54.425Z,11.50
2023-01-02T00:24:22.454Z,11.50
2023-01-02T00:26:50.162Z,11.60
2023-01-02T00:29:17.889Z,11.50
2023-01-02T00:31:45.644Z,11.60
2023-01-02T00:34:13.411Z,11.60
2023-01-02T00:36:42.526Z,11.60
2023-01-02T00:39:10.281Z,11.70
2023-01-02T00:41:38.020Z,11.70
2023-01-02T00:44:05.807Z,11.70
2023-01-02T00:46:33.565Z,11.70
2023-01-02T00:49:01.502Z,11.70
2023-01-02T00:51:29.236Z,11.70
2023-01-02T00:53:58.339Z,11.70
2023-01-02T00:56:26.083Z,11.80
2023-01-02T00:58:53.813Z,11.80
2023-01-02T01:01:21.694Z,11.80
2023-01-02T01:03:49.511Z,11.80
2023-01-02T01:06:17.245Z,11.80
2023-01-02T01:08:45.064Z,11.80
2023-01-02T01:11:17.153Z,11.80
2023-01-02T01:13:45.368Z,11.80
2023-01-02T01:16:15.293Z,11.90
2023-01-02T01:18:43.722Z,11.90
2023-01-02T01:21:13.063Z,11.90
2023-01-02T01:23:40.942Z,11.90
2023-01-02T01:26:10.668Z,11.90
2023-01-02T01:28:40.561Z,11.90
2023-01-02T01:31:10.112Z,12.00
2023-01-02T01:33:38.861Z,12.00
2023-01-02T01:36:09.599Z,12.00
2023-01-02T01:38:37.771Z,12.00
2023-01-02T01:41:05.889Z,12.00
2023-01-02T01:43:43.412Z,12.00
2023-01-02T01:46:20.444Z,12.00
2023-01-02T01:48:50.836Z,12.00
2023-01-02T01:51:19.987Z,12.00
2023-01-02T01:53:50.808Z,12.00
2023-01-02T01:56:18.596Z,12.00
2023-01-02T01:58:47.864Z,12.00
2023-01-02T02:01:18.022Z,12.10
2023-01-02T02:03:48.836Z,12.10
2023-01-02T02:06:18.704Z,12.10
2023-01-02T02:08:51.118Z,12.10
2023-01-02T02:11:19.883Z,12.10
2023-01-02T02:13:50.018Z,12.10
2023-01-02T02:16:28.740Z,12.10
2023-01-02T02:19:28.819Z,12.10
2023-01-02T02:22:20.136Z,12.10
2023-01-02T02:25:12.322Z,12.10
2023-01-02T02:28:18.699Z,12.10
2023-01-02T02:30:52.511Z,12.10
2023-01-02T02:33:34.148Z,12.20
2023-01-02T02:36:06.909Z,12.20
2023-01-02T02:38:50.354Z,12.20
2023-01-02T02:41:27.531Z,12.20
2023-01-02T02:44:04.125Z,12.20
2023-01-02T02:46:42.167Z,12.20
2023-01-02T02:49:16.230Z,12.20
2023-01-02T02:51:47.693Z,12.20
2023-01-02T02:54:22.560Z,12.20
2023-01-02T02:56:52.743Z,12.20
2023-01-02T02:59:21.634Z,12.20
2023-01-02T03:01:51.288Z,12.20
2023-01-02T03:04:21.129Z,12.20
2023-01-02T03:07:02.298Z,12.30
2023-01-02T03:09:44.599Z,12.20
2023-01-02T03:12:26.375Z,12.30
2023-01-02T03:15:03.615Z,12.30
2023-01-02T03:17:46.859Z,12.30
2023-01-02T03:20:18.178Z,12.30
2023-01-02T03:22:51.483Z,12.30
2023-01-02T03:25:21.810Z,12.30
2023-01-02T03:27:51.348Z,12.30
2023-01-02T03:30:21.296Z,12.30
2023-01-02T03:32:54.190Z,12.30
2023-01-02T03:35:27.758Z,12.30
2023-01-02T03:37:57.811Z,12.30
2023-01-02T03:40:29.073Z,12.40
2023-01-02T03:43:01.847Z,12.30
2023-01-02T03:45:31.901Z,12.30
2023-01-02T03:48:09.022Z,12.30
2023-01-02T03:50:43.084Z,12.40
2023-01-02T03:53:10.899Z,12.40
2023-01-02T03:55:41.113Z,12.40
2023-01-02T03:58:16.646Z,12.40
2023-01-02T04:00:51.386Z,12.40
2023-01-02T04:03:25.517Z,12.40
2023-01-02T04:05:58.273Z,12.40
2023-01-02T04:08:29.905Z,12.40
2023-01-02T04:11:00.668Z,12.40
2023-01-02T04:13:33.633Z,12.40
2023-01-02T04:16:03.353Z,12.40
2023-01-02T04:18:40.239Z,12.40
2023-01-02T04:21:14.696Z,12.40
2023-01-02T04:23:45.807Z,12.40
2023-01-02T04:26:18.485Z,12.40
2023-01-02T04:28:46.291Z,12.40
2023-01-02T04:31:17.893Z,12.40
2023-01-02T04:33:50.326Z,12.40
2023-01-02T04:36:18.530Z,12.40
2023-01-02T04:38:47.119Z,12.40
2023-01-02T04:41:18.642Z,12.40
2023-01-02T04:43:46.372Z,12.40
2023-01-02T04:46:14.131Z,12.40
2023-01-02T04:48:41.895Z,12.40
2023-01-02T04:51:10.971Z,12.40
2023-01-02T04:53:38.743Z,12.40
2023-01-02T04:56:07.262Z,12.40
2023-01-02T04:58:35.032Z,12.40
2023-01-02T05:01:02.753Z,12.40
2023-01-02T05:03:30.548Z,12.40
2023-01-02T05:06:01.342Z,12.40
2023-01-02T05:08:31.078Z,12.40
2023-01-02T05:10:58.950Z,12.40
2023-01-02T05:13:26.674Z,12.40
2023-01-02T05:15:56.454Z,12.40
2023-01-02T05:18:24.324Z,12.50
2023-01-02T05:20:52.091Z,12.50
2023-01-02T05:23:37.486Z,12.50
2023-01-02T05:26:11.384Z,12.50
2023-01-02T05:28:39.136Z,12.60
2023-01-02T05:31:06.961Z,12.60
2023-01-02T05:33:34.725Z,12.60
2023-01-02T05:36:04.796Z,12.60
2023-01-02T05:38:32.784Z,12.60
2023-01-02T05:41:01.665Z,12.60
2023-01-02T05:43:33.005Z,12.60
2023-01-02T05:46:07.084Z,12.60
2023-01-02T05:48:34.878Z,12.60
2023-01-02T05:51:02.856Z,12.60
2023-01-02T05:53:30.759Z,12.50
2023-01-02T05:56:05.808Z,12.50
2023-01-02T05:58:36.608Z,12.60
2023-01-02T06:01:07.993Z,12.50
2023-01-02T06:03:36.314Z,12.50
2023-01-02T06:06:05.684Z,12.50
2023-01-02T06:08:33.497Z,12.50
2023-01-02T06:11:01.467Z,12.40
2023-01-02T06:13:30.091Z,12.40
2023-01-02T06:16:00.125Z,12.40
2023-01-02T06:18:28.812Z,12.40
2023-01-02T06:21:00.242Z,12.40
2023-01-02T06:23:28.127Z,12.40
2023-01-02T06:25:56.047Z,12.30
2023-01-02T06:28:23.791Z,12.30
2023-01-02T06:30:51.548Z,12.30
2023-01-02T06:33:20.786Z,12.30
2023-01-02T06:35:48.946Z,12.30
2023-01-02T06:38:16.688Z,12.30
2023-01-02T06:40:53.566Z,12.30
2023-01-02T06:43:21.423Z,12.30
2023-01-02T06:45:49.269Z,12.30
2023-01-02T06:48:17.331Z,12.30
2023-01-02T06:50:46.937Z,12.30
2023-01-02T06:53:15.002Z,12.20
2023-01-02T06:55:51.927Z,12.20
2023-01-02T06:58:20.265Z,12.20
2023-01-02T07:00:48.293Z,12.30
2023-01-02T07:03:16.890Z,12.20
2023-01-02T07:05:46.155Z,12.20
2023-01-02T07:08:14.391Z,12.20
2023-01-02T07:10:42.139Z,12.20
2023-01-02T07:13:09.877Z,12.20
2023-01-02T07:15:37.604Z,12.20
2023-01-02T07:18:05.386Z,12.20
2023-01-02T07:20:33.168Z,12.20
2023-01-02T07:23:02.243Z,12.20
2023-01-02T07:25:30.043Z,12.20
2023-01-02T07:28:00.322Z,12.20
2023-01-02T07:30:28.229Z,12.20
2023-01-02T07:32:55.962Z,12.20
2023-01-02T07:35:23.703Z,12.20
2023-01-02T07:37:52.202Z,12.20
2023-01-02T07:40:21.527Z,12.20
2023-01-02T07:42:49.293Z,12.20
2023-01-02T07:45:17.232Z,12.20
2023-01-02T07:47:44.996Z,12.20
2023-01-02T07:50:12.747Z,12.20
2023-01-02T07:52:40.468Z,12.20
2023-01-02T07:55:08.857Z,12.20
2023-01-02T07:57:38.014Z,12.20
2023-01-02T08:00:06.994Z,12.10
2023-01-02T08:02:34.857Z,12.10
2023-01-02T08:05:02.661Z,12.10
2023-01-02T08:07:30.395Z,12.00
2023-01-02T08:09:58.106Z,12.00
2023-01-02T08:12:25.820Z,12.00
2023-01-02T08:14:54.995Z,12.00
2023-01-02T08:17:22.719Z,12.00
2023-01-02T08:19:50.429Z,12.00
2023-01-02T08:22:18.173Z,11.90
2023-01-02T08:24:45.898Z,12.00
2023-01-02T08:27:13.711Z,12.00
2023-01-02T08:29:41.497Z,12.00
2023-01-02T08:32:10.553Z,12.00
2023-01-02T08:34:38.266Z,12.00
2023-01-02T08:37:05.992Z,12.00
2023-01-02T08:39:33.713Z,12.00
2023-01-02T08:42:01.419Z,12.00
2023-01-02T08:44:29.166Z,11.90
2023-01-02T08:46:56.920Z,11.90
2023-01-02T08:49:25.976Z,11.90
2023-01-02T08:51:53.731Z,11.80
2023-01-02T08:54:21.479Z,11.80
2023-01-02T08:56:49.745Z,11.70
2023-01-02T08:59:17.471Z,11.70
2023-01-02T09:01:45.296Z,11.60
2023-01-02T09:04:13.703Z,11.60
2023-01-02T09:06:43.860Z,11.50
2023-01-02T09:09:13.225Z,11.50
2023-01-02T09:11:45.209Z,11.40
2023-01-02T09:14:13.020Z,11.40
2023-01-02T09:16:40.821Z,11.40
2023-01-02T09:19:08.549Z,11.40
2023-01-02T09:21:36.335Z,11.30
2023-01-02T09:24:06.398Z,11.30
2023-01-02T09:26:34.279Z,11.20
2023-01-02T09:29:02.250Z,11.20
2023-01-02T09:31:30.057Z,11.20
2023-01-02T09:33:57.831Z,11.20
2023-01-02T09:36:25.607Z,11.10
2023-01-02T09:38:54.150Z,11.10
2023-01-02T09:41:34.877Z,11.10
2023-01-02T09:44:06.533Z,11.10
2023-01-02T09:46:41.056Z,11.10
2023-01-02T09:49:14.245Z,11.10
2023-01-02T09:51:43.650Z,11.10
2023-01-02T09:54:17.555Z,11.10
2023-01-02T09:56:53.028Z,11.10
2023-01-02T09:59:28.646Z,11.10
2023-01-02T10:02:03.960Z,11.10
2023-01-02T10:04:47.374Z,11.10
2023-01-02T10:07:21.623Z,11.10
2023-01-02T10:09:55.635Z,11.10
2023-01-02T10:12:33.122Z,11.10
2023-01-02T10:15:03.726Z,11.10
2023-01-02T10:17:37.586Z,11.10
2023-01-02T10:20:22.170Z,11.10
2023-01-02T10:22:54.489Z,11.10
2023-01-02T10:25:25.675Z,11.00
2023-01-02T10:27:58.819Z,11.00
2023-01-02T10:30:28.546Z,11.00
2023-01-02T10:33:00.808Z,11.00
2023-01-02T10:35:37.408Z,11.00
2023-01-02T10:38:05.579Z,10.90
2023-01-02T10:40:34.741Z,10.80
2023-01-02T10:43:04.218Z,10.90
2023-01-02T10:45:32.079Z,10.80
2023-01-02T10:47:59.810Z,10.80
2023-01-02T10:50:37.134Z,10.80
2023-01-02T10:53:08.106Z,10.80
2023-01-02T10:55:39.868Z,10.80
2023-01-02T10:58:17.988Z,10.70
2023-01-02T11:00:45.903Z,10.70
2023-01-02T11:03:17.333Z,10.70
2023-01-02T11:05:47.882Z,10.70
2023-01-02T11:08:18.219Z,10.60
2023-01-02T11:10:46.001Z,10.60
2023-01-02T11:13:16.833Z,10.60
2023-01-02T11:15:53.377Z,10.50
2023-01-02T11:18:24.664Z,10.50
2023-01-02T11:20:54.539Z,10.50
2023-01-02T11:23:25.441Z,10.50
2023-01-02T11:25:54.540Z,10.50
2023-01-02T11:28:27.159Z,10.50
2023-01-02T11:31:01.233Z,10.40
2023-01-02T11:33:31.730Z,10.40
2023-01-02T11:36:07.317Z,10.50
2023-01-02T11:38:44.153Z,10.50
2023-01-02T11:41:45.878Z,10.50
2023-01-02T11:44:20.797Z,10.50
2023-01-02T11:46:50.291Z,10.50
2023-01-02T11:49:21.480Z,10.50
2023-01-02T11:51:55.876Z,10.40
2023-01-02T11:54:26.368Z,10.40
2023-01-02T11:56:54.625Z,10.40
2023-01-02T11:59:29.376Z,10.40
2023-01-02T12:02:01.326Z,10.40
2023-01-02T12:04:30.842Z,10.40
2023-01-02T12:07:23.166Z,10.30
2023-01-02T12:10:01.536Z,10.30
2023-01-02T12:12:44.389Z,10.30
2023-01-02T12:15:52.523Z,10.20
2023-01-02T12:18:33.101Z,10.20
2023-01-02T12:21:07.306Z,10.20
2023-01-02T12:23:59.577Z,10.20
2023-01-02T12:26:38.560Z,10.20
2023-01-02T12:29:46.701Z,10.20
2023-01-02T12:32:51.269Z,10.20
2023-01-02T12:35:40.797Z,10.10
2023-01-02T12:38:09.733Z,10.10
2023-01-02T12:40:47.844Z,10.10
2023-01-02T12:43:36.627Z,10.10
2023-01-02T12:46:18.130Z,10.10
2023-01-02T12:49:06.342Z,10.20
2023-01-02T12:51:42.279Z,10.10
2023-01-02T12:54:24.648Z,10.20
2023-01-02T12:57:03.492Z,10.20
2023-01-02T13:00:03.404Z,10.20
2023-01-02T13:02:49.852Z,10.20
2023-01-02T13:05:22.986Z,10.20
2023-01-02T13:07:54.417Z,10.20
2023-01-02T13:10:25.566Z,10.20
2023-01-02T13:12:54.746Z,10.20
2023-01-02T13:15:26.280Z,10.20
2023-01-02T13:18:03.650Z,10.20
2023-01-02T13:20:43.923Z,10.20
2023-01-02T13:23:31.886Z,10.10
2023-01-02T13:26:02.997Z,10.10
2023-01-02T13:28:30.768Z,10.20
2023-01-02T13:31:44.275Z,10.20
2023-01-02T13:33:55.083Z,10.20
2023-01-02T13:36:28.256Z,10.20
2023-01-02T13:38:59.546Z,10.20
2023-01-02T13:41:29.411Z,10.20
2023-01-02T13:43:59.942Z,10.20
2023-01-02T13:47:02.043Z,10.10
2023-01-02T13:49:20.877Z,10.10
2023-01-02T13:51:50.003Z,10.20
2023-01-02T13:54:20.856Z,10.20
2023-01-02T13:57:16.744Z,10.20
2023-01-02T13:59:52.158Z,10.20
2023-01-02T14:02:22.406Z,10.20
2023-01-02T14:04:50.434Z,10.20
2023-01-02T14:07:48.852Z,10.20
2023-01-02T14:10:44.850Z,10.20
2023-01-02T14:13:36.561Z,10.20
2023-01-02T14:16:43.818Z,10.10
2023-01-02T14:19:23.123Z,10.10
2023-01-02T14:22:01.919Z,10.10
2023-01-02T14:24:34.876Z,10.10
2023-01-02T14:27:05.295Z,10.10
2023-01-02T14:29:40.510Z,10.10
2023-01-02T14:32:10.990Z,10.10
2023-01-02T14:34:46.428Z,10.10
2023-01-02T14:37:29.635Z,10.10
2023-01-02T14:40:11.146Z,10.00
2023-01-02T14:42:56.856Z,10.10
2023-01-02T14:45:28.131Z,10.00
2023-01-02T14:47:59.707Z,10.00
2023-01-02T14:50:31.374Z,10.00
2023-01-02T14:53:07.436Z,10.00
2023-01-02T14:55:42.289Z,10.00
2023-01-02T14:58:18.984Z,10.00
2023-01-02T15:00:49.106Z,9.90
2023-01-02T15:03:27.849Z,9.90
2023-01-02T15:06:00.525Z,9.90
2023-01-02T15:08:38.088Z,10.00
2023-01-02T15:11:35.502Z,9.90
2023-01-02T15:14:04.380Z,9.90
2023-01-02T15:16:40.935Z,9.90
2023-01-02T15:19:18.259Z,9.90
2023-01-02T15:21:46.986Z,9.80
2023-01-02T15:24:21.197Z,9.80
2023-01-02T15:26:50.822Z,9.80
2023-01-02T15:29:23.217Z,9.80
2023-01-02T15:31:56.155Z,9.80
2023-01-02T15:34:29.188Z,9.80
2023-01-02T15:36:59.145Z,9.70
2023-01-02T15:39:33.827Z,9.70
2023-01-02T15:42:10.054Z,9.80
2023-01-02T15:44:57.930Z,9.70
2023-01-02T15:47:28.512Z,9.60
2023-01-02T15:49:59.645Z,9.60
2023-01-02T15:52:31.941Z,9.60
2023-01-02T15:55:00.504Z,9.60
2023-01-02T15:57:32.924Z,9.60
2023-01-02T16:00:01.383Z,9.60
2023-01-02T16:02:34.040Z,9.60
2023-01-02T16:05:13.984Z,9.50
2023-01-02T16:07:42.397Z,9.50
2023-01-02T16:10:19.082Z,9.50
2023-01-02T16:12:53.829Z,9.50
2023-01-02T16:15:25.481Z,9.50
2023-01-02T16:17:55.882Z,9.50
2023-01-02T16:20:26.206Z,9.40
2023-01-02T16:22:57.612Z,9.40
2023-01-02T16:25:28.458Z,9.40
2023-01-02T16:28:01.699Z,9.30
2023-01-02T16:30:32.887Z,9.30
2023-01-02T16:33:02.513Z,9.30
2023-01-02T16:35:33.625Z,9.30
2023-01-02T16:38:03.185Z,9.30
2023-01-02T16:41:01.338Z,9.30
2023-01-02T16:43:38.001Z,9.30
2023-01-02T16:46:14.678Z,9.20
2023-01-02T16:48:44.175Z,9.20
2023-01-02T16:51:16.069Z,9.20
2023-01-02T16:53:45.569Z,9.20
2023-01-02T16:56:14.325Z,9.20
2023-01-02T16:58:43.624Z,9.20
2023-01-02T17:01:12.874Z,9.20
2023-01-02T17:03:40.802Z,9.20
2023-01-02T17:06:13.019Z,9.20
2023-01-02T17:08:40.889Z,9.20
2023-01-02T17:11:09.086Z,9.10
2023-01-02T17:13:36.847Z,9.10
2023-01-02T17:16:07.680Z,9.10
2023-01-02T17:18:35.449Z,9.10
2023-01-02T17:21:03.270Z,9.10
2023-01-02T17:23:31.061Z,9.10
2023-01-02T17:25:58.909Z,9.10
2023-01-02T17:28:27.404Z,9.10
2023-01-02T17:30:55.300Z,9.10
2023-01-02T17:33:24.415Z,9.10
2023-01-02T17:35:52.659Z,9.10
2023-01-02T17:38:21.167Z,9.10
2023-01-02T17:40:49.119Z,9.10
2023-01-02T17:43:17.298Z,9.10
2023-01-02T17:45:45.111Z,9.10
2023-01-02T17:48:17.260Z,9.00
2023-01-02T17:50:52.751Z,9.00
2023-01-02T17:53:20.584Z,9.00
2023-01-02T17:56:21.840Z,9.00
2023-01-02T17:58:40.796Z,9.00
2023-01-02T18:01:08.667Z,9.00
2023-01-02T18:03:36.754Z,9.00
2023-01-02T18:06:09.709Z,8.90
2023-01-02T18:08:38.448Z,8.90
2023-01-02T18:11:07.762Z,8.90
2023-01-02T18:13:41.151Z,8.90
2023-01-02T18:16:14.366Z,8.90
2023-01-02T18:18:42.948Z,8.90
2023-01-02T18:21:15.315Z,8.90
2023-01-02T18:23:43.449Z,8.80
2023-01-02T18:26:13.076Z,8.80
2023-01-02T18:28:42.429Z,8.80
2023-01-02T18:31:16.117Z,8.80
2023-01-02T18:33:44.283Z,8.80
2023-01-02T18:36:20.856Z,8.70
2023-01-02T18:38:50.695Z,8.70
2023-01-02T18:41:22.362Z,8.70
2023-01-02T18:43:53.904Z,8.60
2023-01-02T18:46:23.691Z,8.60
2023-01-02T18:48:53.392Z,8.60
2023-01-02T18:51:25.069Z,8.60
2023-01-02T18:53:54.581Z,8.60
2023-01-02T18:56:25.618Z,8.60
2023-01-02T18:59:02.530Z,8.60
2023-01-02T19:01:34.673Z,8.50
2023-01-02T19:04:26.774Z,8.50
2023-01-02T19:06:58.286Z,8.50
2023-01-02T19:09:31.749Z,8.40
2023-01-02T19:12:20.844Z,8.40
2023-01-02T19:14:49.558Z,8.30
2023-01-02T19:17:22.249Z,8.30
2023-01-02T19:19:50.695Z,8.30
2023-01-02T19:22:22.721Z,8.20
2023-01-02T19:24:51.028Z,8.20
2023-01-02T19:27:27.182Z,8.20
2023-01-02T19:29:55.616Z,8.20
2023-01-02T19:32:29.058Z,8.20
2023-01-02T19:34:59.655Z,8.20
2023-01-02T19:37:38.761Z,8.20
2023-01-02T19:40:18.731Z,8.20
2023-01-02T19:42:47.916Z,8.20
2023-01-02T19:45:17.248Z,8.20
2023-01-02T19:47:45.526Z,8.20
2023-01-02T19:50:15.669Z,8.20
2023-01-02T19:52:44.951Z,8.20
2023-01-02T19:55:13.651Z,8.20
2023-01-02T19:57:41.791Z,8.20
2023-01-02T20:00:13.064Z,8.20
2023-01-02T20:02:41.995Z,8.10
2023-01-02T20:05:14.831Z,8.10
2023-01-02T20:07:46.944Z,8.20
2023-01-02T20:10:15.197Z,8.20
2023-01-02T20:12:43.052Z,8.20
2023-01-02T20:15:12.897Z,8.20
2023-01-02T20:17:40.818Z,8.20
2023-01-02T20:20:13.119Z,8.20
2023-01-02T20:22:43.326Z,8.10
2023-01-02T20:25:13.639Z,8.20
2023-01-02T20:27:42.241Z,8.20
2023-01-02T20:30:11.530Z,8.20
2023-01-02T20:32:39.442Z,8.20
2023-01-02T20:35:08.168Z,8.20
2023-01-02T20:37:35.991Z,8.20
2023-01-02T20:40:03.912Z,8.20
2023-01-02T20:42:33.652Z,8.20
2023-01-02T20:45:01.505Z,8.20
2023-01-02T20:47:29.589Z,8.20
2023-01-02T20:49:58.233Z,8.20
2023-01-02T20:52:27.085Z,8.20
2023-01-02T20:54:54.971Z,8.20
2023-01-02T20:57:23.005Z,8.20
2023-01-02T20:59:52.310Z,8.10
2023-01-02T21:02:20.880Z,8.10
2023-01-02T21:04:49.068Z,8.20
2023-01-02T21:07:17.069Z,8.10
2023-01-02T21:09:44.914Z,8.10
2023-01-02T21:12:26.942Z,8.10
2023-01-02T21:14:56.286Z,8.10
2023-01-02T21:17:24.173Z,8.10
2023-01-02T21:19:51.996Z,8.20
2023-01-02T21:22:20.026Z,8.10
2023-01-02T21:24:47.973Z,8.10
2023-01-02T21:27:15.859Z,8.00
2023-01-02T21:29:45.536Z,8.00
2023-01-02T21:32:15.140Z,8.00
2023-01-02T21:34:42.970Z,8.00
2023-01-02T21:37:11.117Z,8.00
2023-01-02T21:39:38.938Z,7.90
2023-01-02T21:42:18.926Z,8.00
2023-01-02T21:44:48.065Z,7.90
2023-01-02T21:47:18.274Z,7.90
2023-01-02T21:49:46.366Z,7.90
2023-01-02T21:52:14.443Z,7.80
2023-01-02T21:54:42.344Z,7.80
2023-01-02T21:57:10.488Z,7.80
2023-01-02T21:59:38.512Z,7.80
2023-01-02T22:02:06.899Z,7.80
2023-01-02T22:04:37.078Z,7.80
2023-01-02T22:07:30.767Z,7.80
2023-01-02T22:09:52.734Z,7.80
2023-01-02T22:12:20.926Z,7.70
2023-01-02T22:14:48.812Z,7.70
2023-01-02T22:17:16.716Z,7.70
2023-01-02T22:19:45.894Z,7.70
2023-01-02T22:22:13.891Z,7.70
2023-01-02T22:24:44.699Z,7.70
2023-01-02T22:27:15.429Z,7.60
2023-01-02T22:30:18.959Z,7.60
2023-01-02T22:32:33.788Z,7.60
2023-01-02T22:35:06.160Z,7.60
2023-01-02T22:37:34.035Z,7.60
2023-01-02T22:40:02.139Z,7.50
2023-01-02T22:43:01.718Z,7.50
2023-01-02T22:45:34.747Z,7.50
2023-01-02T22:48:06.970Z,7.50
2023-01-02T22:50:42.371Z,7.50
2023-01-02T22:53:23.393Z,7.50
2023-01-02T22:55:51.579Z,7.50
2023-01-02T22:58:20.059Z,7.50
2023-01-02T23:00:50.025Z,7.50
2023-01-02T23:03:18.291Z,7.50
2023-01-02T23:05:47.501Z,7.50
2023-01-02T23:08:15.376Z,7.60
2023-01-02T23:10:43.260Z,7.60
2023-01-02T23:13:11.143Z,7.60
2023-01-02T23:16:00.645Z,7.60
2023-01-02T23:18:48.087Z,7.60
2023-01-02T23:21:22.304Z,7.60
2023-01-02T23:23:50.182Z,7.60
2023-01-02T23:26:19.234Z,7.60
2023-01-02T23:31:36.003Z,7.60
2023-01-02T23:34:03.936Z,7.60
2023-01-02T23:36:33.396Z,7.50
2023-01-02T23:39:01.288Z,7.50
2023-01-02T23:41:29.079Z,7.50
2023-01-02T23:43:56.896Z,7.50
2023-01-02T23:46:24.825Z,7.50
2023-01-02T23:48:52.783Z,7.50
2023-01-02T23:51:20.588Z,7.60
2023-01-02T23:53:50.860Z,7.60
2023-01-02T23:56:20.466Z,7.60
2023-01-02T23:58:49.243Z,7.50
